Accueil
METAR-TAF:

METAR-TAF

Aéroports :

Bahreïn, Bahreïn

Aéroport international de Bahreïn

latitude: 26-16N, longitude: 050-39E, altitude: 2 m

Observation

Le bulletin a été fait il y a 35 minutes, à 00:00 UTC
Vent 3 kt de ouest/nord-ouest
Température 16°C
Humidité 68%
Pression 1017 hPa
Visibilité 10 km ou plus
pas de nuages en-dessous de 1500 mètres et pas de cumulonimbus.

METAR: OBBI 140000Z 30003KT CAVOK 16/10 Q1017 NOSIG

Heure: 03:35 (00:35 UTC)

Prévision

Le bulletin a été fait il y a 1 heure et 35 minutes, à 23:00 UTC
Prévision valable du 14 à 00 UTC au 15 à 06 UTC
Vent 5 kt de sud-ouest
Visibilité 10 km ou plus
pas de nuages en-dessous de 1500 mètres et pas de cumulonimbus.
Evoluant progressivement
du 14 à 11 UTC au 14 à 13 UTC
Vent 12 kt de sud/sud-est

TAF: OBBI 132300Z 1400/1506 23005KT CAVOK BECMG 1411/1413 16012KT

Observations et prévisions météorologiques de plus de 4000 aéroports (messages METAR et TAF).

Les stations disponibles sont représentées par des disques jaunes et rouges sur la carte.

Passer la souris dessus pour voir le nom de la station.

Cliquer dessus pour voir les observations et prévisions météorologiques.

Pour changer de carte: cliquez sur les boutons verts avec une croix noire pour zoomer, sur le bouton vert avec un tiret pour effectuer un zoom arrière, ou sur les flèches vertes pour les cartes adjacentes.


METAR-TAF: